Terminal Aerodrome Forecast
Issued by NWS

Home | Current Version | Previous Version | Text Only | Print | Product List | Glossary On
Versions: 1 2 3 4 5 6 7 8 9 10 11 12 13 14 15 16 17 18 19 20 21 22
000
FTUS41 KPBZ 181130
TAFFKL
TAF
KFKL 181130Z 1812/1912 20007KT P6SM OVC020
     FM181500 22007KT P6SM -DZ OVC015
     FM181700 22008KT P6SM -DZ OVC006
     FM182300 23009KT P6SM -DZ OVC008
     FM190200 24009KT 5SM -DZ OVC004=

USA.gov is the U.S. government's official web portal to all federal, state and local government web resources and services.